Time;durP1;ratioP1;P1;durP2;ratioP2;P2;SDS_P1;SDS_P2;PMS_P1;PMS_P2;Temp;Humidity;BMP_temperature;BMP_pressure;BME280_temperature;BME280_humidity;BME280_pressure;Samples;Min_cycle;Max_cycle;Signal;HPM_P1;HPM_P2
2021/12/15 00:00:20;;;;;;;6.07;2.13;;;28.00;69.60;;;;;;5136249;27;20381;-92
2021/12/15 00:02:50;;;;;;;6.13;1.80;;;28.40;67.30;;;;;;5134363;27;20369;-85
2021/12/15 00:05:23;;;;;;;6.90;1.70;;;28.40;63.70;;;;;;5134282;27;20736;-87
2021/12/15 00:08:01;;;;;;;6.73;1.73;;;28.60;64.30;;;;;;5133964;27;20404;-91
2021/12/15 00:10:29;;;;;;;4.45;1.80;;;28.70;62.20;;;;;;5134058;27;20377;-91
2021/12/15 00:12:57;;;;;;;7.68;1.90;;;28.60;64.20;;;;;;5133873;27;20373;-89
2021/12/15 00:15:27;;;;;;;6.05;1.58;;;28.80;62.10;;;;;;5133632;27;20482;-87
2021/12/15 00:17:56;;;;;;;6.50;1.60;;;28.80;59.50;;;;;;5133954;27;20616;-88
2021/12/15 00:20:25;;;;;;;9.13;2.42;;;28.60;61.10;;;;;;5133821;27;20405;-85
2021/12/15 00:22:52;;;;;;;6.67;2.30;;;28.50;60.50;;;;;;5133653;27;20371;-88
2021/12/15 00:25:23;;;;;;;7.93;1.80;;;28.60;62.30;;;;;;5135644;27;20415;-91
2021/12/15 00:27:51;;;;;;;8.25;2.10;;;28.70;61.60;;;;;;5115255;27;20422;-88
2021/12/15 00:30:19;;;;;;;8.52;2.00;;;29.00;60.60;;;;;;5133834;27;20361;-87
2021/12/15 00:32:47;;;;;;;5.25;1.95;;;29.40;59.80;;;;;;5133695;27;20369;-92
2021/12/15 00:35:14;;;;;;;7.03;1.63;;;29.70;57.90;;;;;;5133399;27;20469;-88
2021/12/15 00:37:42;;;;;;;6.70;1.63;;;29.80;55.50;;;;;;5133153;27;20492;-86
2021/12/15 00:40:13;;;;;;;5.25;1.50;;;30.10;54.10;;;;;;5133676;27;20428;-87
2021/12/15 00:42:40;;;;;;;5.80;1.42;;;30.50;53.90;;;;;;5133056;27;20403;-89
2021/12/15 00:45:09;;;;;;;3.78;1.30;;;30.70;52.10;;;;;;5133349;27;20824;-88
2021/12/15 00:47:36;;;;;;;5.03;1.50;;;30.60;50.90;;;;;;5133298;27;20524;-92
2021/12/15 00:50:06;;;;;;;5.00;1.60;;;30.40;52.00;;;;;;5133679;27;20373;-93
2021/12/15 00:52:44;;;;;;;4.65;1.35;;;30.50;50.90;;;;;;5133436;27;20365;-88
2021/12/15 00:55:15;;;;;;;5.28;1.50;;;30.40;49.40;;;;;;5134062;27;20365;-83
2021/12/15 00:57:43;;;;;;;4.90;1.30;;;30.30;52.00;;;;;;5134459;27;20867;-85
2021/12/15 01:00:15;;;;;;;5.93;1.40;;;30.30;51.20;;;;;;5137469;27;20400;-84
2021/12/15 01:02:43;;;;;;;4.68;1.20;;;30.70;51.50;;;;;;5145258;27;20928;-87
2021/12/15 01:05:12;;;;;;;5.40;1.30;;;31.50;49.50;;;;;;5136692;27;20437;-86
2021/12/15 01:07:40;;;;;;;5.10;1.50;;;32.00;48.50;;;;;;5133371;27;20418;-88
2021/12/15 01:10:09;;;;;;;3.53;1.20;;;32.00;46.10;;;;;;5133399;27;20401;-91
2021/12/15 01:21:00;;;;;;;1.90;1.00;;;31.90;45.50;;;;;;5132885;27;20360;-91
2021/12/15 01:23:31;;;;;;;4.47;1.20;;;32.30;45.10;;;;;;5132854;27;20365;-91
2021/12/15 01:26:10;;;;;;;3.70;1.10;;;32.30;43.90;;;;;;5132558;27;20365;-89
2021/12/15 01:28:37;;;;;;;4.70;1.10;;;32.20;44.00;;;;;;5132594;27;20376;-93
2021/12/15 01:31:06;;;;;;;5.60;1.02;;;32.30;45.60;;;;;;5132020;27;20826;-92
2021/12/15 01:33:35;;;;;;;2.58;1.00;;;32.70;42.70;;;;;;5132258;27;20858;-90
2021/12/15 01:36:04;;;;;;;3.75;1.02;;;32.90;42.90;;;;;;5131977;27;20393;-86
2021/12/15 01:38:35;;;;;;;2.60;1.00;;;33.20;42.50;;;;;;5132340;27;20429;-87
2021/12/15 01:41:03;;;;;;;3.60;1.10;;;33.40;41.30;;;;;;5132225;27;20357;-86
2021/12/15 01:49:14;;;;;;;3.53;1.20;;;34.80;40.00;;;;;;5131962;27;20376;-90
2021/12/15 01:51:42;;;;;;;3.05;1.20;;;34.60;41.20;;;;;;5131975;27;20365;-85
2021/12/15 01:54:12;;;;;;;3.42;1.10;;;34.60;42.60;;;;;;5132782;27;20415;-90
2021/12/15 01:56:40;;;;;;;3.60;1.00;;;35.10;40.90;;;;;;5132269;27;20721;-85
2021/12/15 01:59:09;;;;;;;3.42;1.00;;;35.30;40.30;;;;;;5133090;27;20504;-87
2021/12/15 02:01:37;;;;;;;4.45;1.00;;;35.10;38.70;;;;;;5132059;27;20372;-85
2021/12/15 02:04:05;;;;;;;3.25;0.95;;;35.20;40.00;;;;;;5132773;27;20365;-87
2021/12/15 02:06:33;;;;;;;3.35;1.05;;;35.50;36.60;;;;;;5113237;27;20449;-89
2021/12/15 02:09:00;;;;;;;4.85;1.00;;;35.00;40.30;;;;;;5131724;27;20759;-88
2021/12/15 02:11:27;;;;;;;2.92;1.05;;;35.50;39.30;;;;;;5131745;27;20890;-87
2021/12/15 02:13:55;;;;;;;4.25;1.00;;;35.80;38.50;;;;;;5131750;27;20379;-88
2021/12/15 02:16:22;;;;;;;4.15;1.10;;;35.60;38.90;;;;;;5131729;27;20808;-90
2021/12/15 02:18:49;;;;;;;2.63;1.13;;;36.10;38.90;;;;;;5131483;27;20764;-91
2021/12/15 02:21:19;;;;;;;3.72;1.00;;;36.70;39.20;;;;;;5132002;27;20446;-88
2021/12/15 02:23:53;;;;;;;2.45;0.98;;;37.20;39.40;;;;;;5131552;27;20924;-86
2021/12/15 02:26:26;;;;;;;3.00;1.10;;;37.90;38.40;;;;;;5132041;27;20365;-89
2021/12/15 02:28:57;;;;;;;2.85;1.00;;;38.50;37.20;;;;;;5131536;27;20369;-89
2021/12/15 02:39:44;;;;;;;3.78;1.02;;;38.60;35.50;;;;;;5132393;27;20515;-90
2021/12/15 02:42:12;;;;;;;3.72;1.20;;;38.30;36.20;;;;;;5132029;27;20372;-87
2021/12/15 02:44:43;;;;;;;1.57;0.90;;;38.60;36.10;;;;;;5143562;27;20376;-85
2021/12/15 02:47:16;;;;;;;2.17;1.05;;;39.10;36.50;;;;;;5142695;27;20422;-83
2021/12/15 02:49:43;;;;;;;3.00;1.00;;;39.90;35.40;;;;;;5131924;27;20380;-83
2021/12/15 02:52:11;;;;;;;4.32;1.00;;;40.40;35.80;;;;;;5131243;27;20406;-85
2021/12/15 02:54:38;;;;;;;3.42;1.08;;;40.70;34.60;;;;;;5112876;28;20456;-88
2021/12/15 02:57:10;;;;;;;4.30;1.00;;;39.80;34.20;;;;;;5131468;27;20385;-85
2021/12/15 02:59:49;;;;;;;2.67;0.95;;;39.30;34.30;;;;;;5132951;27;20392;-86
2021/12/15 03:04:55;;;;;;;4.97;1.10;;;40.10;33.40;;;;;;5134910;27;20781;-85
2021/12/15 03:07:35;;;;;;;3.20;0.90;;;40.30;33.90;;;;;;5135379;27;20461;-85
2021/12/15 03:15:37;;;;;;;4.13;1.00;;;40.30;33.70;;;;;;5135178;27;20367;-84
2021/12/15 03:18:17;;;;;;;2.08;1.13;;;39.20;32.90;;;;;;5134891;27;20743;-84
2021/12/15 03:21:14;;;;;;;3.63;1.10;;;38.70;35.00;;;;;;5134871;27;20376;-85
2021/12/15 03:23:50;;;;;;;3.53;1.10;;;39.00;35.30;;;;;;5134725;27;20716;-88
2021/12/15 03:26:25;;;;;;;2.38;1.05;;;39.80;35.40;;;;;;5135016;27;20769;-84
2021/12/15 03:39:24;;;;;;;3.08;1.10;;;39.30;34.60;;;;;;5139065;27;20428;-83
2021/12/15 03:41:56;;;;;;;6.38;1.10;;;39.70;34.80;;;;;;5140706;27;20367;-83
2021/12/15 03:44:24;;;;;;;4.95;1.15;;;40.30;33.30;;;;;;5138055;27;20765;-89
2021/12/15 03:46:51;;;;;;;2.75;0.90;;;39.40;34.10;;;;;;5135261;27;20448;-86
2021/12/15 03:49:19;;;;;;;3.13;0.90;;;38.90;34.10;;;;;;5135588;27;20407;-87
2021/12/15 03:51:46;;;;;;;3.38;1.15;;;38.30;34.70;;;;;;5135426;27;20382;-86
2021/12/15 03:54:19;;;;;;;2.63;0.82;;;38.80;35.30;;;;;;5135196;27;20460;-90
2021/12/15 03:56:49;;;;;;;11.93;1.10;;;39.60;35.00;;;;;;5116196;27;20503;-87
2021/12/15 03:59:18;;;;;;;4.78;1.17;;;39.70;34.50;;;;;;5134772;27;20377;-91
2021/12/15 04:01:46;;;;;;;4.85;0.90;;;40.30;34.20;;;;;;5134441;27;20903;-84
2021/12/15 04:04:13;;;;;;;4.43;1.00;;;40.80;32.20;;;;;;5134596;27;20375;-89
2021/12/15 04:06:41;;;;;;;5.28;1.05;;;41.20;32.80;;;;;;5134546;27;20361;-84
2021/12/15 04:09:12;;;;;;;3.63;1.15;;;41.70;32.10;;;;;;5134106;27;20408;-90
2021/12/15 04:11:40;;;;;;;6.85;1.20;;;41.90;32.00;;;;;;5134348;27;20361;-86
2021/12/15 04:14:11;;;;;;;3.65;1.05;;;42.20;32.30;;;;;;5115843;27;20883;-89
2021/12/15 04:19:13;;;;;;;2.92;0.98;;;42.00;32.30;;;;;;5134111;27;20384;-89
2021/12/15 04:21:41;;;;;;;3.10;1.00;;;40.80;33.40;;;;;;5134424;27;20368;-88
2021/12/15 04:24:10;;;;;;;2.05;0.98;;;40.90;33.30;;;;;;5134598;27;20714;-91
2021/12/15 04:26:37;;;;;;;5.22;1.00;;;40.90;32.60;;;;;;5140809;27;20368;-90
2021/12/15 04:29:05;;;;;;;3.85;1.00;;;40.70;32.00;;;;;;5149042;27;20401;-90
2021/12/15 04:31:35;;;;;;;5.13;1.00;;;41.20;32.00;;;;;;5145145;27;20365;-92
2021/12/15 04:34:09;;;;;;;7.20;1.00;;;41.90;31.50;;;;;;5136029;27;20782;-88
2021/12/15 04:36:40;;;;;;;3.63;1.10;;;42.80;30.60;;;;;;5135107;27;20430;-89
2021/12/15 04:39:10;;;;;;;3.83;1.10;;;43.00;31.20;;;;;;5134611;27;20377;-90
2021/12/15 04:41:37;;;;;;;2.75;1.02;;;42.40;31.50;;;;;;5116783;27;21029;-91
2021/12/15 04:44:11;;;;;;;4.25;0.90;;;42.40;31.80;;;;;;5134208;27;20389;-92
2021/12/15 04:46:41;;;;;;;5.75;1.00;;;42.10;30.30;;;;;;5137484;27;20415;-89
2021/12/15 04:49:11;;;;;;;3.17;1.00;;;41.60;31.00;;;;;;5135706;27;20393;-89
2021/12/15 04:51:38;;;;;;;4.80;0.95;;;41.60;32.30;;;;;;5134544;27;20365;-91
2021/12/15 04:54:16;;;;;;;4.03;0.95;;;42.00;31.00;;;;;;5144626;27;20448;-83
2021/12/15 04:56:43;;;;;;;6.47;1.10;;;41.70;32.40;;;;;;5129485;27;20369;-88
2021/12/15 04:59:12;;;;;;;3.33;0.95;;;41.60;31.90;;;;;;5142869;27;20459;-90
2021/12/15 05:01:39;;;;;;;3.97;0.93;;;42.30;32.20;;;;;;5132997;27;20468;-84
2021/12/15 05:04:06;;;;;;;4.65;1.10;;;42.40;31.70;;;;;;5133389;27;20388;-92
2021/12/15 05:06:35;;;;;;;5.10;1.00;;;42.00;30.60;;;;;;5133649;27;20373;-91
2021/12/15 05:09:04;;;;;;;4.17;1.00;;;40.90;31.00;;;;;;5141211;27;20372;-91
2021/12/15 05:11:32;;;;;;;3.83;1.10;;;40.10;31.10;;;;;;5134717;27;20758;-91
2021/12/15 05:14:00;;;;;;;3.13;1.00;;;39.70;33.30;;;;;;5132983;27;20888;-92
2021/12/15 05:16:27;;;;;;;3.35;0.90;;;39.60;33.00;;;;;;5115166;27;20384;-86
2021/12/15 05:18:54;;;;;;;3.47;1.10;;;39.90;33.60;;;;;;5132270;27;20420;-90
2021/12/15 05:21:25;;;;;;;7.18;0.90;;;40.80;32.70;;;;;;5114674;27;20400;-88
2021/12/15 05:23:57;;;;;;;5.53;0.90;;;40.10;32.70;;;;;;5133745;27;20373;-90
2021/12/15 05:26:25;;;;;;;3.40;0.90;;;38.70;33.70;;;;;;5133053;27;20415;-88
2021/12/15 05:28:52;;;;;;;3.70;0.90;;;37.90;34.40;;;;;;5133070;27;20401;-86
2021/12/15 05:31:19;;;;;;;3.22;1.00;;;37.10;35.20;;;;;;5132528;27;20381;-86
2021/12/15 05:33:46;;;;;;;4.72;1.10;;;36.20;36.40;;;;;;5132167;27;20385;-88
2021/12/15 05:36:14;;;;;;;4.53;1.00;;;35.50;36.60;;;;;;5131783;27;20393;-89
2021/12/15 05:38:41;;;;;;;4.60;1.20;;;35.10;37.00;;;;;;5132032;27;20445;-88
2021/12/15 05:41:08;;;;;;;3.70;1.02;;;34.80;38.00;;;;;;5131719;27;20437;-88
2021/12/15 05:43:35;;;;;;;3.17;1.00;;;34.70;37.60;;;;;;5131607;27;20405;-88
2021/12/15 05:46:03;;;;;;;3.03;0.90;;;35.30;38.50;;;;;;5130703;27;20381;-87
2021/12/15 05:48:30;;;;;;;4.83;0.93;;;35.60;37.20;;;;;;5131761;27;20428;-89
2021/12/15 05:50:57;;;;;;;3.78;1.05;;;35.80;36.90;;;;;;5131346;27;20806;-87
2021/12/15 05:53:25;;;;;;;4.07;0.90;;;35.40;37.30;;;;;;5131927;27;20392;-89
2021/12/15 05:55:52;;;;;;;4.50;1.10;;;34.80;38.30;;;;;;5113854;27;20463;-88
2021/12/15 05:58:21;;;;;;;4.90;0.90;;;34.20;39.10;;;;;;5132561;27;20373;-89
2021/12/15 06:00:49;;;;;;;3.47;0.95;;;34.10;39.30;;;;;;5133205;27;20413;-86
2021/12/15 06:03:17;;;;;;;3.65;1.08;;;34.00;40.30;;;;;;5114559;27;20436;-87
2021/12/15 06:05:44;;;;;;;4.35;1.02;;;33.80;40.10;;;;;;5133683;27;20373;-86
2021/12/15 06:08:12;;;;;;;1.80;0.90;;;33.90;40.20;;;;;;5127961;27;20391;-87
2021/12/15 06:10:40;;;;;;;3.40;0.90;;;33.90;40.60;;;;;;5143778;27;20377;-87
2021/12/15 06:13:11;;;;;;;4.03;1.00;;;34.10;40.80;;;;;;5152099;27;20369;-85
2021/12/15 06:15:39;;;;;;;2.85;1.10;;;34.30;41.20;;;;;;5145873;27;20400;-87
2021/12/15 06:18:11;;;;;;;9.23;1.10;;;34.40;39.70;;;;;;5134906;27;20425;-87
2021/12/15 06:20:39;;;;;;;2.95;1.00;;;34.40;39.80;;;;;;5113403;28;20385;-86
2021/12/15 06:23:12;;;;;;;4.77;1.13;;;34.30;40.20;;;;;;5131861;27;20388;-88
2021/12/15 06:25:40;;;;;;;4.00;1.80;;;34.10;40.00;;;;;;5135444;27;20404;-88
2021/12/15 06:28:08;;;;;;;7.82;1.35;;;34.10;40.90;;;;;;5132850;27;20393;-86
2021/12/15 06:30:37;;;;;;;7.60;1.13;;;34.70;41.60;;;;;;5110888;27;20459;-89
2021/12/15 06:33:05;;;;;;;4.78;1.10;;;34.70;43.30;;;;;;5129374;27;20377;-88
2021/12/15 06:35:35;;;;;;;3.90;1.20;;;35.10;42.50;;;;;;5135214;27;20396;-91
2021/12/15 06:38:03;;;;;;;2.15;1.38;;;35.20;42.00;;;;;;5117591;27;20752;-87
2021/12/15 06:40:31;;;;;;;3.72;1.80;;;34.50;41.50;;;;;;5112450;27;20532;-87
2021/12/15 06:42:58;;;;;;;3.25;1.83;;;33.70;43.20;;;;;;5135688;27;20385;-85
2021/12/15 06:45:34;;;;;;;3.72;2.28;;;33.00;43.20;;;;;;5134338;27;20385;-89
2021/12/15 06:59:02;;;;;;;6.03;4.77;;;33.10;42.90;;;;;;5135225;27;20387;-87
2021/12/15 07:01:29;;;;;;;6.80;5.13;;;33.80;42.10;;;;;;5134613;27;20376;-88
2021/12/15 07:03:56;;;;;;;1.13;0.73;;;34.60;41.90;;;;;;5134451;27;20385;-86
2021/12/15 07:06:24;;;;;;;1.67;1.20;;;34.70;40.40;;;;;;5134440;27;20377;-85
2021/12/15 07:08:52;;;;;;;3.30;0.90;;;35.40;40.70;;;;;;5135047;27;20396;-87
2021/12/15 07:11:19;;;;;;;2.35;0.70;;;35.60;39.80;;;;;;5134427;27;20373;-86
2021/12/15 07:13:47;;;;;;;1.55;0.60;;;34.80;40.70;;;;;;5133735;27;20416;-86
2021/12/15 07:16:14;;;;;;;1.45;0.80;;;34.60;41.00;;;;;;5128466;27;20890;-86
2021/12/15 07:18:52;;;;;;;1.58;0.80;;;34.10;40.80;;;;;;5113272;27;20412;-86
2021/12/15 07:21:23;;;;;;;2.40;1.00;;;33.70;42.10;;;;;;5134748;27;20453;-87
2021/12/15 07:23:53;;;;;;;4.30;1.00;;;34.40;40.80;;;;;;5134723;27;20873;-85
2021/12/15 07:26:23;;;;;;;1.58;0.80;;;35.10;39.90;;;;;;5134054;27;20381;-86
2021/12/15 07:28:51;;;;;;;2.00;0.80;;;35.10;40.10;;;;;;5133413;27;20392;-86
2021/12/15 07:31:20;;;;;;;2.92;0.90;;;35.00;40.20;;;;;;5122707;27;20385;-87
2021/12/15 07:33:47;;;;;;;1.90;0.90;;;34.70;40.40;;;;;;5134464;27;20448;-86
2021/12/15 07:36:16;;;;;;;2.47;0.98;;;34.30;40.70;;;;;;5119315;27;20395;-89
2021/12/15 07:38:44;;;;;;;9.10;1.10;;;33.30;42.00;;;;;;5115636;27;20400;-86
2021/12/15 07:44:02;;;;;;;4.57;1.02;;;31.80;45.20;;;;;;5134821;27;20421;-87
2021/12/15 07:46:31;;;;;;;3.80;1.10;;;31.30;46.60;;;;;;5133894;27;20485;-86
2021/12/15 07:48:58;;;;;;;3.50;1.48;;;31.10;47.00;;;;;;5134775;27;20405;-86
2021/12/15 07:51:25;;;;;;;3.23;1.40;;;30.80;47.70;;;;;;5133435;27;20373;-89
2021/12/15 07:53:52;;;;;;;2.47;1.00;;;30.60;48.30;;;;;;5125029;27;20377;-91
2021/12/15 07:56:20;;;;;;;4.68;1.10;;;30.50;49.60;;;;;;5139354;27;20880;-86
2021/12/15 07:58:47;;;;;;;2.28;1.10;;;30.40;50.10;;;;;;5153431;27;20471;-85
2021/12/15 08:01:16;;;;;;;3.25;1.23;;;30.50;50.20;;;;;;5122636;27;20601;-86
2021/12/15 08:03:43;;;;;;;1.85;1.25;;;30.20;50.40;;;;;;5119494;27;20393;-88
2021/12/15 08:06:11;;;;;;;3.67;1.30;;;30.20;51.40;;;;;;5134819;27;20365;-87
2021/12/15 08:08:38;;;;;;;3.28;1.20;;;30.10;52.50;;;;;;5116554;27;20392;-85
2021/12/15 08:11:05;;;;;;;2.88;1.10;;;29.70;53.80;;;;;;5134301;27;20417;-87
2021/12/15 08:13:35;;;;;;;2.20;1.15;;;29.60;54.70;;;;;;5134784;27;20357;-88
2021/12/15 08:16:03;;;;;;;3.90;1.20;;;29.60;55.30;;;;;;5134871;27;20383;-85
2021/12/15 08:18:31;;;;;;;1.70;1.15;;;29.60;55.50;;;;;;5134497;27;20864;-85
2021/12/15 08:21:03;;;;;;;5.20;1.10;;;29.40;55.70;;;;;;5133693;27;20868;-87
2021/12/15 08:23:31;;;;;;;3.67;1.30;;;29.40;56.10;;;;;;5134630;27;20424;-86
2021/12/15 08:26:00;;;;;;;2.17;1.00;;;29.20;55.90;;;;;;5134493;27;20385;-86
2021/12/15 08:28:27;;;;;;;2.40;1.10;;;29.10;55.30;;;;;;5135493;27;20428;-88
2021/12/15 08:30:56;;;;;;;2.43;0.97;;;28.90;55.70;;;;;;5129566;27;20388;-87
2021/12/15 08:33:24;;;;;;;2.35;1.08;;;28.80;56.20;;;;;;5148733;27;20384;-88
2021/12/15 08:36:13;;;;;;;2.10;1.00;;;28.80;56.10;;;;;;5145513;27;20438;-86
2021/12/15 08:38:42;;;;;;;3.13;0.93;;;28.80;56.30;;;;;;5139086;27;20389;-86
2021/12/15 08:41:17;;;;;;;3.85;1.00;;;28.70;56.30;;;;;;5127575;27;20370;-86
2021/12/15 08:43:44;;;;;;;6.50;1.00;;;28.60;56.40;;;;;;5119134;28;20794;-89
2021/12/15 08:46:18;;;;;;;39.45;2.80;;;28.30;57.10;;;;;;5134570;27;20376;-86
2021/12/15 08:48:47;;;;;;;34.58;2.78;;;28.10;58.60;;;;;;5117178;27;20430;-88
2021/12/15 08:51:16;;;;;;;44.78;3.70;;;27.90;59.40;;;;;;5135103;27;20380;-85
2021/12/15 08:53:46;;;;;;;32.92;3.00;;;27.50;61.70;;;;;;5133768;27;20377;-86
2021/12/15 08:56:13;;;;;;;25.88;2.92;;;27.10;64.90;;;;;;5133646;27;20412;-89
2021/12/15 08:58:40;;;;;;;30.08;2.95;;;26.70;67.00;;;;;;5133544;27;20372;-87
2021/12/15 09:01:08;;;;;;;11.27;1.85;;;26.40;69.00;;;;;;5133046;27;20384;-87
2021/12/15 09:03:38;;;;;;;12.07;1.90;;;26.00;72.00;;;;;;5134208;27;20361;-86
2021/12/15 09:06:05;;;;;;;15.77;1.75;;;25.80;75.10;;;;;;5132465;27;20423;-87
2021/12/15 09:08:33;;;;;;;17.55;2.00;;;25.70;77.80;;;;;;5132032;27;20388;-87
2021/12/15 09:11:06;;;;;;;12.50;1.60;;;25.70;79.40;;;;;;5132672;27;20856;-88
2021/12/15 09:13:33;;;;;;;41.80;3.70;;;25.80;80.10;;;;;;5133097;27;20372;-89
2021/12/15 09:16:08;;;;;;;16.83;1.85;;;25.90;81.40;;;;;;5113945;27;20746;-87
2021/12/15 09:18:37;;;;;;;13.37;1.83;;;25.90;82.50;;;;;;5114669;27;20861;-87
2021/12/15 09:21:06;;;;;;;9.95;1.90;;;25.90;81.20;;;;;;5133165;27;20377;-89
2021/12/15 09:23:33;;;;;;;14.30;1.85;;;25.90;80.30;;;;;;5114337;27;20378;-88
2021/12/15 09:26:01;;;;;;;17.17;1.92;;;25.90;80.10;;;;;;5132479;27;20381;-88
2021/12/15 09:28:30;;;;;;;18.97;2.03;;;25.90;79.00;;;;;;5132870;27;20748;-89
2021/12/15 09:30:57;;;;;;;10.80;1.45;;;26.00;78.90;;;;;;5133013;27;20473;-88
2021/12/15 09:33:42;;;;;;;13.82;1.52;;;26.00;78.60;;;;;;5133274;27;20369;-87
2021/12/15 09:36:10;;;;;;;6.38;1.50;;;26.00;79.40;;;;;;5136254;27;20406;-86
2021/12/15 09:38:38;;;;;;;7.27;1.30;;;26.00;79.60;;;;;;5140804;27;20376;-87
2021/12/15 09:41:08;;;;;;;7.97;1.30;;;26.00;79.90;;;;;;5141775;27;20906;-87
2021/12/15 09:43:36;;;;;;;6.93;1.30;;;26.00;80.40;;;;;;5132465;27;20376;-87
2021/12/15 09:57:30;;;;;;;7.45;1.42;;;25.90;82.20;;;;;;5136445;27;20863;-88
2021/12/15 10:03:07;;;;;;;11.75;1.85;;;25.80;83.50;;;;;;5134210;27;20357;-90
2021/12/15 10:05:51;;;;;;;9.80;1.83;;;25.70;83.20;;;;;;5115140;27;20377;-89
2021/12/15 10:11:43;;;;;;;11.15;1.35;;;25.50;85.20;;;;;;5133905;27;20388;-86
2021/12/15 10:19:54;;;;;;;5.23;1.40;;;25.10;93.40;;;;;;5134340;27;20395;-90
2021/12/15 10:22:40;;;;;;;3.22;1.40;;;24.80;96.50;;;;;;5115210;28;20377;-89
2021/12/15 10:25:15;;;;;;;4.95;2.00;;;24.60;98.70;;;;;;5130396;27;20369;-90
2021/12/15 10:27:48;;;;;;;6.13;2.55;;;24.30;99.90;;;;;;5123492;27;20371;-90
2021/12/15 10:30:24;;;;;;;5.43;2.50;;;24.10;99.90;;;;;;5118080;28;20440;-91
2021/12/15 10:32:58;;;;;;;6.13;2.72;;;24.00;99.90;;;;;;5132427;27;20367;-93
2021/12/15 10:35:36;;;;;;;6.95;2.85;;;23.80;99.90;;;;;;5134732;27;20454;-92
2021/12/15 10:38:45;;;;;;;6.55;3.17;;;23.70;99.90;;;;;;5137275;27;20369;-92
2021/12/15 10:41:33;;;;;;;6.70;2.80;;;23.50;99.90;;;;;;5135234;28;20371;-88
2021/12/15 10:44:00;;;;;;;6.93;2.22;;;23.30;99.90;;;;;;5117340;28;20794;-91
2021/12/15 10:46:51;;;;;;;10.65;2.42;;;23.20;99.90;;;;;;5134269;27;20421;-91
2021/12/15 10:49:24;;;;;;;10.70;2.42;;;23.00;99.90;;;;;;5135473;28;20393;-89
2021/12/15 10:52:02;;;;;;;6.72;2.20;;;23.00;99.90;;;;;;5134174;27;20380;-86
2021/12/15 10:54:32;;;;;;;7.20;2.30;;;22.90;99.90;;;;;;5104170;28;20471;-89
2021/12/15 10:57:18;;;;;;;6.63;2.10;;;22.80;99.90;;;;;;5132331;27;20377;-91
2021/12/15 10:59:52;;;;;;;8.88;2.38;;;22.90;99.90;;;;;;5124813;27;20377;-91
2021/12/15 11:02:24;;;;;;;8.93;2.50;;;22.80;99.90;;;;;;5131713;27;20368;-93
2021/12/15 11:04:59;;;;;;;9.68;2.97;;;22.80;99.90;;;;;;5114989;28;20385;-90
2021/12/15 11:07:36;;;;;;;9.40;2.93;;;22.90;99.90;;;;;;5113995;28;20389;-91
2021/12/15 11:10:17;;;;;;;9.43;3.10;;;22.80;99.90;;;;;;5132155;27;20397;-91
2021/12/15 11:13:01;;;;;;;10.02;3.33;;;22.80;99.90;;;;;;5133939;27;20364;-92
2021/12/15 11:15:41;;;;;;;11.52;3.20;;;22.70;99.90;;;;;;5133184;27;20510;-89
2021/12/15 11:18:28;;;;;;;12.18;2.90;;;22.60;99.90;;;;;;5121219;28;20404;-89
2021/12/15 11:21:08;;;;;;;10.60;3.13;;;22.50;99.90;;;;;;5140259;27;20369;-92
2021/12/15 11:23:39;;;;;;;12.57;3.47;;;22.40;99.90;;;;;;5143580;27;20384;-88
2021/12/15 11:26:12;;;;;;;11.77;3.63;;;22.30;99.90;;;;;;5126947;27;20381;-93
2021/12/15 11:28:51;;;;;;;14.27;4.40;;;22.20;99.90;;;;;;5144216;27;20388;-93
2021/12/15 11:31:33;;;;;;;21.88;3.92;;;22.20;99.90;;;;;;5145801;27;20414;-89
2021/12/15 11:34:05;;;;;;;13.02;3.05;;;22.10;99.90;;;;;;5151115;27;20880;-89
2021/12/15 11:36:44;;;;;;;11.73;3.00;;;22.00;99.90;;;;;;5125925;28;20402;-88
2021/12/15 11:39:19;;;;;;;12.35;2.95;;;22.00;99.90;;;;;;5103575;28;20888;-90
2021/12/15 11:41:53;;;;;;;13.20;3.28;;;22.00;99.90;;;;;;5118958;28;20738;-91
2021/12/15 11:44:23;;;;;;;12.15;3.00;;;22.00;99.90;;;;;;5119918;28;20431;-89
2021/12/15 11:47:08;;;;;;;13.87;3.20;;;21.90;99.90;;;;;;5121918;28;20371;-92
2021/12/15 11:49:44;;;;;;;16.17;2.90;;;21.90;99.90;;;;;;5116283;28;20780;-88
2021/12/15 11:52:14;;;;;;;21.60;3.85;;;21.90;99.90;;;;;;5118407;28;20378;-94
2021/12/15 11:54:48;;;;;;;20.83;3.53;;;21.90;99.90;;;;;;5117774;28;20370;-91
2021/12/15 11:57:31;;;;;;;14.05;2.83;;;21.90;99.90;;;;;;5117448;28;20389;-92
2021/12/15 12:00:12;;;;;;;15.70;3.10;;;21.90;99.90;;;;;;5118228;28;20370;-86
2021/12/15 12:02:47;;;;;;;17.88;3.60;;;21.80;99.90;;;;;;5121517;28;20430;-91
2021/12/15 12:05:19;;;;;;;22.15;3.97;;;21.80;99.90;;;;;;5120369;28;20636;-95
2021/12/15 12:07:48;;;;;;;14.43;3.60;;;21.80;99.90;;;;;;5122926;28;20392;-95
2021/12/15 12:10:24;;;;;;;16.90;3.40;;;21.80;99.90;;;;;;5116740;28;20402;-96
2021/12/15 12:13:10;;;;;;;18.17;3.30;;;21.80;99.90;;;;;;5119815;27;20843;-93
2021/12/15 12:16:02;;;;;;;14.53;3.10;;;21.90;99.90;;;;;;5125360;28;20398;-91
2021/12/15 12:18:33;;;;;;;16.42;3.50;;;21.90;99.90;;;;;;5130024;28;20387;-90
2021/12/15 12:21:15;;;;;;;15.73;3.58;;;21.80;99.90;;;;;;5133974;28;20438;-89
2021/12/15 12:23:45;;;;;;;20.77;3.58;;;21.70;99.90;;;;;;5132574;28;20371;-89
2021/12/15 12:26:14;;;;;;;14.65;3.30;;;21.50;99.90;;;;;;5132523;28;20382;-93
2021/12/15 12:28:51;;;;;;;13.30;3.53;;;21.40;99.90;;;;;;5132313;28;20409;-91
2021/12/15 12:34:07;;;;;;;12.93;3.30;;;21.30;99.90;;;;;;5132888;28;20382;-92
2021/12/15 12:36:37;;;;;;;15.97;3.70;;;21.40;99.90;;;;;;5129415;28;20402;-90
2021/12/15 12:39:12;;;;;;;13.32;3.60;;;21.30;99.90;;;;;;5129837;28;20382;-89
2021/12/15 12:42:06;;;;;;;12.30;3.50;;;21.30;99.90;;;;;;5133135;28;20378;-92
2021/12/15 12:44:45;;;;;;;15.00;4.20;;;21.30;99.90;;;;;;5129511;28;20410;-91
2021/12/15 12:47:34;;;;;;;11.88;3.83;;;21.10;99.90;;;;;;5130761;28;20359;-90
2021/12/15 12:50:41;;;;;;;12.63;3.42;;;21.10;99.90;;;;;;5129047;28;20394;-89
2021/12/15 13:01:18;;;;;;;12.95;3.80;;;21.20;99.90;;;;;;5128691;28;20379;-91
2021/12/15 13:03:55;;;;;;;15.40;4.07;;;21.20;99.90;;;;;;5123709;28;20432;-89
2021/12/15 13:06:38;;;;;;;13.57;3.67;;;21.10;99.90;;;;;;5121871;28;20400;-91
2021/12/15 13:09:10;;;;;;;12.52;3.67;;;21.00;99.90;;;;;;5121350;28;20405;-90
2021/12/15 13:11:39;;;;;;;13.90;3.60;;;21.00;99.90;;;;;;5121691;28;20370;-88
2021/12/15 13:14:13;;;;;;;11.52;3.20;;;20.90;99.90;;;;;;5125345;28;20380;-91
2021/12/15 13:16:43;;;;;;;10.43;3.28;;;20.90;99.90;;;;;;5111741;28;20428;-88
2021/12/15 13:19:17;;;;;;;15.13;3.40;;;20.80;99.90;;;;;;5109242;28;20437;-88
2021/12/15 13:21:59;;;;;;;11.20;3.38;;;20.80;99.90;;;;;;5121155;28;20387;-93
2021/12/15 13:30:45;;;;;;;12.90;3.40;;;20.70;99.90;;;;;;5121254;28;20386;-93
2021/12/15 13:33:34;;;;;;;12.15;3.22;;;20.70;99.90;;;;;;5117347;28;20375;-91
2021/12/15 13:36:29;;;;;;;11.87;3.30;;;20.60;99.90;;;;;;5132902;27;20397;-92
2021/12/15 13:38:56;;;;;;;12.43;3.30;;;20.70;99.90;;;;;;5137904;27;20385;-93
2021/12/15 13:41:37;;;;;;;14.13;3.30;;;20.60;99.90;;;;;;5137949;27;20361;-95
2021/12/15 13:44:06;;;;;;;12.30;3.45;;;20.60;99.90;;;;;;5139019;27;20383;-94
2021/12/15 13:46:39;;;;;;;10.55;3.13;;;20.60;99.90;;;;;;5140977;27;20365;-93
2021/12/15 13:49:15;;;;;;;11.80;3.40;;;20.50;99.90;;;;;;5138405;27;20407;-93
2021/12/15 13:51:51;;;;;;;12.60;3.50;;;20.50;99.90;;;;;;5116869;27;20389;-96
2021/12/15 13:54:37;;;;;;;11.48;2.92;;;20.50;99.90;;;;;;5117907;27;20424;-91
2021/12/15 13:57:09;;;;;;;11.45;3.20;;;20.60;99.90;;;;;;5117331;27;20392;-93
2021/12/15 13:59:38;;;;;;;8.50;2.90;;;20.60;99.90;;;;;;5118854;27;20377;-92
2021/12/15 14:02:18;;;;;;;9.70;2.95;;;20.70;99.90;;;;;;5137750;27;20365;-95
2021/12/15 14:04:55;;;;;;;8.50;3.28;;;20.10;99.90;;;;;;5137650;27;20369;-96
2021/12/15 14:07:48;;;;;;;12.90;3.05;;;20.90;99.90;;;;;;5138493;27;20379;-95
2021/12/15 14:10:17;;;;;;;11.55;3.13;;;21.00;99.90;;;;;;5141295;27;20400;-94
2021/12/15 14:12:47;;;;;;;11.75;3.40;;;20.90;99.90;;;;;;5137531;27;20422;-96
2021/12/15 14:15:40;;;;;;;11.57;3.42;;;20.90;99.90;;;;;;5119728;27;20384;-96
2021/12/15 14:18:25;;;;;;;10.95;3.35;;;20.90;99.90;;;;;;5110372;27;20369;-95
2021/12/15 14:20:52;;;;;;;10.55;3.60;;;20.80;99.90;;;;;;5135893;27;20369;-92
2021/12/15 14:23:24;;;;;;;13.65;3.58;;;20.80;99.90;;;;;;5136481;28;20468;-93
2021/12/15 14:25:53;;;;;;;12.48;3.40;;;20.70;99.90;;;;;;5135601;28;20442;-94
2021/12/15 14:28:25;;;;;;;15.98;3.88;;;20.90;99.90;;;;;;5134030;27;20377;-95
2021/12/15 14:31:23;;;;;;;16.05;3.90;;;20.90;99.90;;;;;;5135657;28;20733;-89
2021/12/15 14:34:05;;;;;;;21.45;6.80;;;21.00;99.90;;;;;;5136117;27;20725;-90
2021/12/15 14:36:39;;;;;;;25.00;6.70;;;21.00;99.90;;;;;;5137009;28;20460;-88
2021/12/15 14:39:10;;;;;;;18.45;6.00;;;21.10;99.90;;;;;;5135629;28;20481;-90
2021/12/15 14:41:40;;;;;;;19.45;4.70;;;21.00;99.90;;;;;;5141351;28;20921;-88
2021/12/15 14:44:24;;;;;;;16.85;4.70;;;21.00;99.90;;;;;;5138408;28;20409;-88